Time;durP1;ratioP1;P1;durP2;ratioP2;P2;SDS_P1;SDS_P2;PMS_P1;PMS_P2;Temp;Humidity;BMP_temperature;BMP_pressure;BME280_temperature;BME280_humidity;BME280_pressure;Samples;Min_cycle;Max_cycle;Signal;HPM_P1;HPM_P2
2021/01/23 00:00:01;;;;;;;7.58;3.92;;;;;;;-0.42;80.59;97857.15;1756759;81;21361;-84
2021/01/23 00:02:29;;;;;;;6.85;4.22;;;;;;;-0.46;80.59;97861.97;1760003;81;21209;-84
2021/01/23 00:04:55;;;;;;;6.65;4.80;;;;;;;-0.51;80.68;97849.73;1747090;81;21167;-82
2021/01/23 00:07:22;;;;;;;10.10;4.78;;;;;;;-0.65;80.64;97834.80;1727777;82;21194;-83
2021/01/23 00:09:49;;;;;;;7.47;4.67;;;;;;;-0.59;80.70;97841.45;1770104;80;21531;-83
2021/01/23 00:12:16;;;;;;;9.55;5.05;;;;;;;-0.62;80.77;97844.95;1785451;80;21201;-80
2021/01/23 00:14:43;;;;;;;7.37;4.90;;;;;;;-0.67;80.72;97840.44;1774851;80;21307;-82
2021/01/23 00:17:10;;;;;;;8.63;4.78;;;;;;;-0.72;80.83;97841.86;1778996;80;21168;-83
2021/01/23 00:19:37;;;;;;;9.68;5.50;;;;;;;-0.75;80.87;97844.97;1757788;81;21187;-82
2021/01/23 00:22:04;;;;;;;7.70;5.20;;;;;;;-0.79;80.89;97848.05;1757963;81;21106;-83
2021/01/23 00:24:31;;;;;;;9.08;5.35;;;;;;;-0.81;80.91;97854.97;1757906;81;27204;-82
2021/01/23 00:26:58;;;;;;;6.72;4.78;;;;;;;-0.86;80.90;97867.08;1733641;81;21148;-81
2021/01/23 00:29:25;;;;;;;11.50;5.85;;;;;;;-0.86;80.90;97867.08;1750453;81;21565;-83
2021/01/23 00:31:52;;;;;;;10.03;5.67;;;;;;;-0.89;81.07;97869.75;1773724;80;21179;-83
2021/01/23 00:34:19;;;;;;;11.57;5.97;;;;;;;-0.91;81.12;97868.50;1757385;81;21543;-83
2021/01/23 00:36:46;;;;;;;7.78;5.75;;;;;;;-0.92;81.14;97863.44;1762504;80;21209;-84
2021/01/23 00:39:13;;;;;;;7.95;5.70;;;;;;;-0.95;81.08;97860.52;1772865;80;22064;-83
2021/01/23 00:41:40;;;;;;;12.07;6.75;;;;;;;-0.95;81.13;97864.81;1737431;82;21176;-83
2021/01/23 00:44:07;;;;;;;9.88;7.08;;;;;;;-0.99;81.16;97856.81;1760578;81;21141;-83
2021/01/23 00:46:34;;;;;;;16.07;8.55;;;;;;;-1.03;81.13;97858.63;1749557;82;21636;-81
2021/01/23 00:49:01;;;;;;;11.12;7.20;;;;;;;-1.05;81.14;97860.84;1756883;81;21182;-83
2021/01/23 00:51:28;;;;;;;15.15;7.65;;;;;;;-1.08;81.18;97867.34;1742859;81;21582;-83
2021/01/23 00:53:54;;;;;;;10.78;7.05;;;;;;;-1.10;81.17;97875.51;1757888;81;21453;-81
2021/01/23 00:56:22;;;;;;;16.55;8.20;;;;;;;-1.10;81.28;97884.47;1726274;83;21142;-82
2021/01/23 00:58:49;;;;;;;10.90;7.85;;;;;;;-1.13;81.28;97882.39;1754860;81;21583;-81
2021/01/23 01:01:16;;;;;;;12.73;7.67;;;;;;;-1.14;81.40;97890.97;1781550;80;21205;-82
2021/01/23 01:03:43;;;;;;;12.53;7.67;;;;;;;-1.13;81.37;97892.63;1749170;81;21624;-83
2021/01/23 01:06:10;;;;;;;14.00;8.85;;;;;;;-1.16;81.34;97895.28;1759603;81;21202;-82
2021/01/23 01:08:37;;;;;;;13.95;7.78;;;;;;;-1.18;81.35;97897.05;1774257;80;21670;-82
2021/01/23 01:11:04;;;;;;;12.23;8.00;;;;;;;-1.20;81.38;97902.67;1758145;81;21106;-82
2021/01/23 01:13:30;;;;;;;15.38;8.23;;;;;;;-1.28;81.46;97892.27;1758172;81;21171;-82
2021/01/23 01:15:57;;;;;;;11.95;8.15;;;;;;;-1.23;81.48;97906.61;1726298;83;21706;-82
2021/01/23 01:18:24;;;;;;;12.53;7.47;;;;;;;-1.24;81.47;97904.91;1758911;78;21136;-79
2021/01/23 01:20:51;;;;;;;12.70;7.75;;;;;;;-1.25;81.50;97910.93;1779162;78;21151;-82
2021/01/23 01:23:18;;;;;;;11.85;7.53;;;;;;;-1.26;81.52;97913.10;1754408;81;21487;-80
2021/01/23 01:25:45;;;;;;;18.05;8.50;;;;;;;-1.28;81.58;97916.14;1758862;81;21167;-83
2021/01/23 01:28:12;;;;;;;16.70;9.08;;;;;;;-1.28;81.66;97907.18;1760238;81;21705;-82
2021/01/23 01:30:39;;;;;;;12.47;7.78;;;;;;;-1.31;81.56;97902.15;1758667;80;21178;-79
2021/01/23 01:33:06;;;;;;;14.13;8.38;;;;;;;-1.33;81.63;97910.31;1757123;80;22269;-81
2021/01/23 01:35:33;;;;;;;12.88;8.28;;;;;;;-1.33;81.65;97906.47;1768746;80;21226;-82
2021/01/23 01:38:00;;;;;;;12.75;8.45;;;;;;;-1.33;81.70;97912.87;1757458;80;21198;-81
2021/01/23 01:40:27;;;;;;;11.88;7.83;;;;;;;-1.35;81.69;97912.06;1780843;80;21096;-80
2021/01/23 01:42:56;;;;;;;13.32;8.00;;;;;;;-1.35;81.69;97909.50;1787074;80;21121;-81
2021/01/23 01:45:23;;;;;;;12.53;7.53;;;;;;;-1.35;81.77;97909.50;1763886;80;21144;-80
2021/01/23 01:47:50;;;;;;;12.10;8.78;;;;;;;-1.34;81.81;97913.76;1789512;79;21854;-81
2021/01/23 01:50:17;;;;;;;14.07;8.43;;;;;;;-1.34;81.79;97920.16;1761280;80;22100;-81
2021/01/23 01:52:45;;;;;;;13.40;8.28;;;;;;;-1.35;81.74;97923.14;1762768;80;21138;-82
2021/01/23 01:55:13;;;;;;;12.35;7.62;;;;;;;-1.35;81.78;97926.14;1758858;80;21150;-81
2021/01/23 01:57:40;;;;;;;11.85;8.13;;;;;;;-1.35;81.83;97938.95;1777915;80;21142;-81
2021/01/23 02:00:08;;;;;;;14.33;8.73;;;;;;;-1.35;81.86;97937.66;1774261;80;21178;-80
2021/01/23 02:03:07;;;;;;;15.43;8.68;;;;;;;-1.37;81.79;97942.02;1750546;80;22366;-82
2021/01/23 02:06:07;;;;;;;13.28;8.58;;;;;;;-1.41;81.77;97945.52;1716998;83;21229;-80
2021/01/23 02:08:47;;;;;;;13.10;8.80;;;;;;;-1.43;81.88;97949.83;1702191;83;21661;-82
2021/01/23 02:11:38;;;;;;;16.93;9.93;;;;;;;-1.41;81.97;97937.84;1704380;83;21215;-81
2021/01/23 02:14:31;;;;;;;13.20;9.65;;;;;;;-1.39;82.05;97914.33;1713810;82;21154;-83
2021/01/23 02:17:14;;;;;;;14.98;9.90;;;;;;;-1.27;82.09;97905.00;1839778;76;22475;-82
2021/01/23 02:20:06;;;;;;;12.40;8.55;;;;;;;-1.28;82.08;97907.18;1806312;79;21120;-81
2021/01/23 02:23:13;;;;;;;14.35;8.33;;;;;;;-1.25;81.97;97910.93;1798655;77;21202;-79
2021/01/23 02:26:17;;;;;;;15.35;9.38;;;;;;;-1.25;82.00;97890.44;1796111;79;21710;-81
2021/01/23 02:29:20;;;;;;;13.98;9.23;;;;;;;-1.26;81.98;97893.90;1813019;79;21190;-79
2021/01/23 02:31:51;;;;;;;11.38;8.70;;;;;;;-1.29;81.89;97909.32;1844608;77;21143;-81
2021/01/23 02:34:22;;;;;;;11.73;7.78;;;;;;;-1.35;81.89;97917.18;1847620;77;21540;-79
2021/01/23 02:36:50;;;;;;;14.87;7.78;;;;;;;-1.38;81.87;97919.83;1809842;77;21188;-80
2021/01/23 02:39:19;;;;;;;12.98;9.03;;;;;;;-1.49;81.77;97917.56;1846590;77;21112;-81
2021/01/23 02:41:49;;;;;;;16.07;8.93;;;;;;;-1.64;81.73;97923.95;1809365;79;21106;-82
2021/01/23 02:44:16;;;;;;;14.03;8.48;;;;;;;-1.75;81.75;97933.63;1798071;77;21167;-82
2021/01/23 02:46:43;;;;;;;11.70;8.63;;;;;;;-1.86;81.80;97939.02;1805705;78;21246;-79
2021/01/23 02:49:10;;;;;;;10.95;7.80;;;;;;;-1.93;81.79;97934.09;1729648;80;21580;-81
2021/01/23 02:52:03;;;;;;;14.23;8.70;;;;;;;-1.99;81.82;97932.98;1753526;80;21114;-79
2021/01/23 02:54:56;;;;;;;14.63;9.10;;;;;;;-2.03;82.06;97924.11;1757423;80;21192;-81
2021/01/23 02:57:25;;;;;;;18.15;9.13;;;;;;;-2.04;82.15;97925.00;1742351;80;21703;-81
2021/01/23 02:59:57;;;;;;;14.00;9.30;;;;;;;-2.05;82.20;97923.30;1756630;80;21287;-82
2021/01/23 03:02:25;;;;;;;20.62;10.70;;;;;;;-2.07;82.15;97922.52;1758397;80;21204;-82
2021/01/23 03:04:56;;;;;;;21.73;10.53;;;;;;;-2.08;82.30;97928.50;1752759;80;21206;-81
2021/01/23 03:07:23;;;;;;;19.73;9.83;;;;;;;-2.10;82.21;97921.73;1764390;80;21139;-81
2021/01/23 03:09:50;;;;;;;17.00;10.08;;;;;;;-2.13;82.24;97917.98;1755205;80;21123;-82
2021/01/23 03:12:17;;;;;;;14.05;9.03;;;;;;;-2.16;82.32;97927.02;1762960;80;21149;-82
2021/01/23 03:14:44;;;;;;;13.43;10.13;;;;;;;-2.19;82.34;97935.59;1776841;79;21207;-82
2021/01/23 03:17:11;;;;;;;14.38;8.78;;;;;;;-2.21;82.29;97934.81;1763594;79;21131;-83
2021/01/23 03:19:38;;;;;;;11.22;8.40;;;;;;;-2.25;82.35;97940.86;1760189;80;21544;-82
2021/01/23 03:22:05;;;;;;;17.30;9.53;;;;;;;-2.26;82.40;97946.87;1754958;80;21147;-82
2021/01/23 03:24:32;;;;;;;14.38;8.15;;;;;;;-2.28;82.41;97939.22;1750458;81;22219;-82
2021/01/23 03:26:59;;;;;;;14.18;8.28;;;;;;;-2.27;82.59;97942.61;1792945;79;21198;-81
2021/01/23 03:29:25;;;;;;;14.00;9.35;;;;;;;-2.25;82.61;97938.30;1731383;82;21166;-80
2021/01/23 03:31:52;;;;;;;13.78;9.43;;;;;;;-2.23;82.66;97941.67;1725559;81;21725;-80
2021/01/23 03:34:19;;;;;;;16.45;8.60;;;;;;;-2.18;82.89;97942.41;1721994;82;21223;-81
2021/01/23 03:36:46;;;;;;;15.48;9.70;;;;;;;-2.14;82.76;97950.84;1734022;82;21222;-80
2021/01/23 03:39:13;;;;;;;12.88;8.68;;;;;;;-2.12;82.82;97955.04;1740980;80;21207;-79
2021/01/23 03:41:40;;;;;;;16.85;9.10;;;;;;;-2.10;82.79;97944.34;1747396;80;21602;-81
2021/01/23 03:44:07;;;;;;;16.95;10.72;;;;;;;-2.09;82.85;97948.56;1771688;80;21152;-81
2021/01/23 03:46:34;;;;;;;13.62;8.95;;;;;;;-2.07;82.91;97958.33;1734988;81;27262;-80
2021/01/23 03:49:02;;;;;;;13.75;8.85;;;;;;;-2.04;82.89;97955.69;1741385;82;21139;-81
2021/01/23 03:51:29;;;;;;;16.95;9.75;;;;;;;-2.00;82.85;97959.00;1736247;82;21646;-79
2021/01/23 03:53:57;;;;;;;20.85;8.90;;;;;;;-1.96;82.65;97964.88;1730223;82;21184;-81
2021/01/23 03:56:23;;;;;;;12.82;8.78;;;;;;;-1.96;82.65;97964.88;1787638;79;21172;-81
2021/01/23 03:58:50;;;;;;;17.02;9.28;;;;;;;-1.96;82.79;97957.20;1770840;80;21176;-80
2021/01/23 04:01:17;;;;;;;11.97;7.92;;;;;;;-1.95;82.81;97948.67;1760283;80;21634;-80
2021/01/23 04:03:44;;;;;;;14.98;9.58;;;;;;;-1.93;82.94;97951.59;1752574;81;21215;-80
2021/01/23 04:06:11;;;;;;;12.90;8.80;;;;;;;-1.91;82.86;97952.81;1756212;80;22287;-81
2021/01/23 04:08:38;;;;;;;13.80;8.48;;;;;;;-1.89;82.94;97949.78;1726358;80;21181;-81
2021/01/23 04:11:05;;;;;;;15.88;9.05;;;;;;;-1.84;82.95;97944.12;1761351;80;21212;-81
2021/01/23 04:13:32;;;;;;;13.05;7.80;;;;;;;-1.77;83.05;97940.50;1729386;80;21234;-81
2021/01/23 04:15:59;;;;;;;14.65;9.53;;;;;;;-1.72;83.03;97930.16;1733205;82;21207;-80
2021/01/23 04:18:26;;;;;;;12.65;7.97;;;;;;;-1.66;83.07;97928.27;1755202;80;21172;-81
2021/01/23 04:20:53;;;;;;;12.40;8.63;;;;;;;-1.64;83.01;97918.83;1733026;80;21209;-80
2021/01/23 04:23:20;;;;;;;13.45;8.65;;;;;;;-1.62;83.05;97909.41;1777402;80;21600;-80
2021/01/23 04:25:47;;;;;;;12.85;8.53;;;;;;;-1.60;83.00;97898.69;1747368;80;21188;-78
2021/01/23 04:28:15;;;;;;;15.05;9.03;;;;;;;-1.56;82.96;97900.72;1757585;80;22102;-79
2021/01/23 04:30:45;;;;;;;15.85;8.95;;;;;;;;;;1758443;80;21169;-80
2021/01/23 04:33:12;;;;;;;14.43;9.08;;;;;;;-1.44;83.11;97899.53;1767324;80;21651;-79
2021/01/23 04:35:39;;;;;;;15.58;8.55;;;;;;;-1.40;83.03;97913.91;1766536;80;21226;-81
2021/01/23 04:38:06;;;;;;;13.35;8.48;;;;;;;-1.39;82.93;97915.61;1765586;79;21580;-80
2021/01/23 04:40:34;;;;;;;16.48;8.65;;;;;;;-1.45;82.71;97926.86;1767717;80;21206;-80
2021/01/23 04:43:03;;;;;;;14.23;9.20;;;;;;;-1.53;82.57;97943.30;1731671;80;21147;-80
2021/01/23 04:45:30;;;;;;;13.68;9.13;;;;;;;-1.59;82.77;97940.47;1771214;80;21148;-80
2021/01/23 04:47:57;;;;;;;16.77;10.55;;;;;;;-1.60;82.91;97948.59;1738743;80;21211;-81
2021/01/23 04:50:24;;;;;;;25.08;15.65;;;;;;;;;;1730720;80;21574;-80
2021/01/23 04:52:51;;;;;;;19.90;13.60;;;;;;;-1.55;83.19;97956.58;1759242;80;21218;-79
2021/01/23 04:55:18;;;;;;;20.95;13.80;;;;;;;-1.50;83.25;97953.46;1741041;82;21175;-81
2021/01/23 04:57:45;;;;;;;24.07;13.85;;;;;;;-1.44;83.25;97945.61;1745492;80;21148;-80
2021/01/23 05:00:13;;;;;;;31.73;18.80;;;;;;;-1.35;83.37;97944.06;1740563;80;21203;-80
2021/01/23 05:02:41;;;;;;;39.13;21.48;;;;;;;-1.24;83.38;97956.13;1741672;80;21157;-81
2021/01/23 05:05:09;;;;;;;36.38;19.70;;;;;;;-1.13;83.42;97956.66;1747037;80;22102;-79
2021/01/23 05:07:41;;;;;;;25.20;14.95;;;;;;;-1.05;83.38;97945.38;1765948;80;21140;-81
2021/01/23 05:10:18;;;;;;;21.30;12.58;;;;;;;-1.00;83.34;97946.08;1741005;80;21737;-81
2021/01/23 05:12:49;;;;;;;21.10;10.65;;;;;;;-0.95;83.36;97948.08;1758770;79;21182;-81
2021/01/23 05:15:29;;;;;;;16.85;10.00;;;;;;;-0.91;83.34;97956.05;1745607;80;21128;-80
2021/01/23 05:18:03;;;;;;;13.88;9.53;;;;;;;-0.90;83.42;97969.25;1755536;80;22070;-81
2021/01/23 05:20:38;;;;;;;17.10;9.10;;;;;;;-0.90;83.43;97975.66;1750938;81;21215;-81
2021/01/23 05:23:16;;;;;;;16.40;9.48;;;;;;;-0.91;83.50;97968.87;1749593;81;21178;-81
2021/01/23 05:25:46;;;;;;;17.32;9.38;;;;;;;-0.91;83.54;97979.11;1768157;80;21211;-81
2021/01/23 05:28:27;;;;;;;19.85;9.20;;;;;;;-0.92;83.46;97980.84;1730620;81;21198;-81
2021/01/23 05:30:55;;;;;;;15.48;9.13;;;;;;;-0.92;83.50;97967.20;1746300;81;21184;-77
2021/01/23 05:33:28;;;;;;;18.65;9.78;;;;;;;-0.92;83.50;97964.19;1764738;80;21764;-80
2021/01/23 05:36:01;;;;;;;15.10;9.45;;;;;;;-0.91;83.50;97958.62;1754615;80;21598;-80
2021/01/23 05:38:34;;;;;;;14.93;8.98;;;;;;;-0.93;83.47;97961.21;1772350;80;21615;-79
2021/01/23 05:41:10;;;;;;;14.60;9.80;;;;;;;-0.94;83.49;97972.80;1758828;80;21177;-79
2021/01/23 05:43:54;;;;;;;18.27;10.20;;;;;;;-0.93;83.54;97968.06;1769218;80;21422;-81
2021/01/23 05:46:31;;;;;;;15.85;10.00;;;;;;;-0.92;83.63;97974.89;1745978;81;21574;-81
2021/01/23 05:48:58;;;;;;;13.98;8.78;;;;;;;-0.90;83.59;97967.97;1749541;81;21195;-79
2021/01/23 05:51:26;;;;;;;15.95;10.35;;;;;;;-0.88;83.62;97961.09;1765085;80;21147;-81
2021/01/23 05:53:53;;;;;;;16.42;10.28;;;;;;;-0.87;83.54;97965.31;1761969;79;21649;-80
2021/01/23 05:56:22;;;;;;;15.60;10.32;;;;;;;-0.90;83.55;97965.41;1753468;81;21211;-80
2021/01/23 05:58:49;;;;;;;17.23;10.50;;;;;;;-0.88;83.54;97976.45;1738531;81;21133;-79
2021/01/23 06:01:22;;;;;;;15.85;10.18;;;;;;;-0.88;83.56;97970.05;1738427;81;21222;-81
2021/01/23 06:06:46;;;;;;;19.82;10.05;;;;;;;-0.76;83.68;97944.50;1862058;76;22434;-83
2021/01/23 06:09:42;;;;;;;17.57;10.25;;;;;;;-0.75;83.64;97949.59;1810034;77;21643;-81
2021/01/23 06:12:36;;;;;;;18.48;10.75;;;;;;;-0.73;83.61;97948.25;1750453;80;21242;-82
2021/01/23 06:15:34;;;;;;;17.65;10.70;;;;;;;-0.73;83.61;97948.25;1746011;81;21207;-81
2021/01/23 06:18:28;;;;;;;16.27;10.88;;;;;;;-0.76;83.57;97947.90;1754506;80;21120;-79
2021/01/23 06:20:59;;;;;;;17.85;10.43;;;;;;;-0.77;83.63;97953.92;1730123;83;21178;-80
2021/01/23 06:23:49;;;;;;;19.67;11.35;;;;;;;-0.78;83.60;97961.22;1755221;80;21214;-81
2021/01/23 06:26:18;;;;;;;17.65;10.40;;;;;;;-0.78;83.62;97954.81;1748147;81;21200;-81
2021/01/23 06:28:48;;;;;;;19.52;10.70;;;;;;;-0.77;83.65;97946.23;1748967;80;21207;-80
2021/01/23 06:31:31;;;;;;;17.35;10.65;;;;;;;-0.77;83.63;97953.09;1765692;80;21687;-83
2021/01/23 06:33:59;;;;;;;18.98;11.03;;;;;;;-0.78;83.64;97948.86;1738486;82;21202;-83
2021/01/23 06:36:26;;;;;;;20.12;11.45;;;;;;;-0.79;83.63;97950.55;1729334;82;21182;-82
2021/01/23 06:39:09;;;;;;;18.37;11.75;;;;;;;-0.77;83.65;97946.23;1766509;80;21643;-82
2021/01/23 06:41:38;;;;;;;17.73;12.73;;;;;;;-0.76;83.59;97940.66;1760746;79;21177;-83
2021/01/23 06:44:17;;;;;;;20.88;11.88;;;;;;;-0.75;83.58;97952.16;1766439;80;21599;-83
2021/01/23 06:46:52;;;;;;;18.67;11.75;;;;;;;-0.74;83.63;97964.08;1766462;80;21207;-82
2021/01/23 06:49:20;;;;;;;17.60;11.85;;;;;;;-0.70;83.70;97973.37;1762775;79;21147;-83
2021/01/23 06:51:47;;;;;;;21.60;10.93;;;;;;;-0.66;83.74;97970.71;1765042;79;21274;-83
2021/01/23 06:54:21;;;;;;;22.32;13.30;;;;;;;-0.63;83.84;97960.36;1764013;79;21218;-81
2021/01/23 06:56:54;;;;;;;21.07;13.68;;;;;;;-0.56;83.80;97964.40;1769153;79;21603;-83
2021/01/23 06:59:32;;;;;;;18.37;12.65;;;;;;;-0.51;83.88;97983.05;1733176;82;21162;-82
2021/01/23 07:02:09;;;;;;;33.33;16.73;;;;;;;-0.48;83.76;97992.80;1754806;80;21171;-82
2021/01/23 07:04:48;;;;;;;43.38;24.75;;;;;;;-0.44;83.72;97988.85;1739279;81;21642;-81
2021/01/23 07:07:18;;;;;;;49.42;25.75;;;;;;;-0.44;83.62;97983.72;1784704;80;21158;-82
2021/01/23 07:09:52;;;;;;;28.38;18.00;;;;;;;-0.47;83.62;97986.77;1762559;80;21536;-81
2021/01/23 07:12:42;;;;;;;31.87;18.57;;;;;;;-0.53;83.49;97981.00;1783440;80;21131;-83
2021/01/23 07:15:14;;;;;;;52.67;21.65;;;;;;;-0.58;83.55;97985.42;1761946;80;21133;-82
2021/01/23 07:17:44;;;;;;;36.75;18.57;;;;;;;-0.59;83.73;97979.88;1779460;79;21164;-82
2021/01/23 07:20:14;;;;;;;36.13;19.80;;;;;;;-0.53;83.85;97974.59;1767335;81;21755;-82
2021/01/23 07:22:44;;;;;;;40.33;20.50;;;;;;;-0.52;83.73;97973.69;1753777;81;21209;-82
2021/01/23 07:25:15;;;;;;;27.77;16.25;;;;;;;-0.53;83.80;97974.59;1801776;78;21223;-81
2021/01/23 07:27:44;;;;;;;30.17;18.42;;;;;;;-0.53;83.86;97966.90;1751859;81;21219;-83
2021/01/23 07:30:16;;;;;;;30.92;17.80;;;;;;;-0.47;84.02;97955.17;1748754;79;21319;-82
2021/01/23 07:32:47;;;;;;;27.13;17.02;;;;;;;-0.41;83.96;97947.72;1782452;78;21160;-82
2021/01/23 07:35:16;;;;;;;25.57;15.18;;;;;;;-0.35;84.00;97952.20;1776431;80;21143;-81
2021/01/23 07:37:56;;;;;;;27.80;15.25;;;;;;;-0.29;84.02;97948.16;1781597;78;21172;-81
2021/01/23 07:40:30;;;;;;;26.48;15.60;;;;;;;-0.20;84.00;97950.04;1782950;80;21218;-80
2021/01/23 07:43:00;;;;;;;30.15;17.35;;;;;;;-0.13;84.02;97937.42;1784355;78;21414;-83
2021/01/23 07:45:30;;;;;;;24.92;14.45;;;;;;;-0.08;83.99;97915.86;1782108;80;21663;-81
2021/01/23 07:48:07;;;;;;;26.23;15.32;;;;;;;0.00;84.05;97910.48;1743221;81;21134;-82
2021/01/23 07:50:41;;;;;;;23.10;14.40;;;;;;;0.05;83.99;97912.87;1766667;80;21221;-82
2021/01/23 07:53:18;;;;;;;23.00;12.30;;;;;;;0.10;84.02;97904.13;1741533;80;21450;-82
2021/01/23 07:55:48;;;;;;;21.33;14.05;;;;;;;0.18;84.01;97888.02;1781732;78;21230;-79
2021/01/23 07:58:15;;;;;;;23.70;11.33;;;;;;;0.28;84.07;97890.25;1787111;79;21610;-79
2021/01/23 08:00:42;;;;;;;;;;;;;;;0.35;84.00;97893.02;1789473;78;21112;-79
2021/01/23 08:03:13;;;;;;;13.45;10.38;;;;;;;0.40;83.92;97885.99;1785944;80;20517;-79
2021/01/23 08:05:49;;;;;;;16.05;11.25;;;;;;;0.42;83.78;97873.50;1732226;81;21140;-83
2021/01/23 08:08:34;;;;;;;;;;;;;;;0.44;83.82;97869.56;1785383;80;21241;-81
2021/01/23 08:11:05;;;;;;;19.50;12.95;;;;;;;0.47;83.71;97873.77;1755292;80;20239;-80
2021/01/23 08:13:35;;;;;;;21.07;13.05;;;;;;;0.43;83.55;97871.30;1750824;80;21199;-80
2021/01/23 08:16:14;;;;;;;25.08;13.43;;;;;;;0.42;83.67;97863.64;1782057;79;21729;-82
2021/01/23 08:18:45;;;;;;;18.40;12.45;;;;;;;0.49;83.67;97852.27;1757013;79;21164;-83
2021/01/23 08:21:21;;;;;;;23.73;14.75;;;;;;;0.40;83.27;97835.92;1774305;80;22014;-83
2021/01/23 08:23:49;;;;;;;22.48;14.53;;;;;;;0.26;83.20;97824.04;1755699;80;21199;-82
2021/01/23 08:28:56;;;;;;;19.92;10.60;;;;;;;0.13;83.58;97821.89;1856904;76;22713;-80
2021/01/23 08:31:25;;;;;;;27.07;13.48;;;;;;;0.16;83.84;97819.21;1752951;80;21179;-80
2021/01/23 08:33:56;;;;;;;22.17;10.18;;;;;;;0.23;83.68;97811.32;1758617;80;22137;-81
2021/01/23 08:36:27;;;;;;;17.57;8.43;;;;;;;0.25;83.79;97812.91;1748084;81;21203;-81
2021/01/23 08:39:05;;;;;;;21.87;12.07;;;;;;;0.36;83.89;97807.39;1739776;81;21191;-82
2021/01/23 08:41:35;;;;;;;23.12;10.98;;;;;;;0.46;83.94;97804.05;1745499;80;21155;-80
2021/01/23 08:44:03;;;;;;;15.13;6.58;;;;;;;0.53;83.93;97801.62;1767142;80;21172;-81
2021/01/23 08:46:30;;;;;;;11.70;5.95;;;;;;;0.61;83.94;97813.28;1764494;80;21196;-80
2021/01/23 08:48:59;;;;;;;8.05;4.47;;;;;;;0.69;83.90;97814.28;1745988;81;21195;-79
2021/01/23 08:51:26;;;;;;;;;;;;;;;0.80;83.93;97833.15;1754413;80;21666;-81
2021/01/23 08:53:53;;;;;;;30.48;14.20;;;;;;;0.86;83.75;97838.05;1755158;80;20508;-82
2021/01/23 08:56:20;;;;;;;38.75;19.80;;;;;;;0.82;83.54;97849.35;1757089;80;21195;-82
2021/01/23 08:58:47;;;;;;;357.77;179.25;;;;;;;0.79;83.60;97867.45;1768734;80;21208;-82
2021/01/23 09:01:14;;;;;;;75.55;35.25;;;;;;;0.81;83.67;97896.47;1771536;80;21224;-80
2021/01/23 09:03:41;;;;;;;68.85;33.83;;;;;;;0.82;83.63;97914.88;1738238;81;21665;-82
2021/01/23 09:06:09;;;;;;;93.17;48.70;;;;;;;0.83;83.59;97922.95;1771645;80;21203;-82
2021/01/23 09:08:36;;;;;;;96.72;57.08;;;;;;;0.85;83.57;97925.03;1752353;80;21225;-81
2021/01/23 09:11:03;;;;;;;95.03;58.30;;;;;;;0.93;83.71;97921.73;1732205;82;21323;-82
2021/01/23 09:13:30;;;;;;;40.10;21.33;;;;;;;1.02;83.77;97934.23;1749074;80;21594;-82
2021/01/23 09:15:57;;;;;;;36.45;17.50;;;;;;;1.13;83.65;97922.72;1767262;80;21563;-83
2021/01/23 09:18:24;;;;;;;33.63;15.23;;;;;;;1.22;83.62;97921.08;1781571;79;21157;-80
2021/01/23 09:20:51;;;;;;;23.60;10.75;;;;;;;1.28;83.60;97914.41;1769707;78;21591;-81
2021/01/23 09:23:18;;;;;;;28.23;11.22;;;;;;;1.38;83.57;97906.73;1796399;79;22230;-81
2021/01/23 09:25:45;;;;;;;17.15;8.65;;;;;;;1.45;83.41;97899.16;1766975;80;21135;-79
2021/01/23 09:28:13;;;;;;;21.23;8.33;;;;;;;1.51;83.45;97892.92;1756143;81;21209;-82
2021/01/23 09:30:40;;;;;;;19.98;9.60;;;;;;;1.56;83.24;97891.02;1777669;78;21164;-80
2021/01/23 09:33:07;;;;;;;21.85;8.75;;;;;;;1.55;83.20;97890.18;1731694;81;21139;-85
2021/01/23 09:35:34;;;;;;;18.02;8.85;;;;;;;1.52;83.00;97885.16;1770601;80;21868;-87
2021/01/23 09:38:01;;;;;;;20.27;9.80;;;;;;;1.55;83.27;97885.49;1766375;80;21163;-85
2021/01/23 09:40:28;;;;;;;22.80;9.98;;;;;;;1.61;83.29;97880.55;1754914;80;21177;-84
2021/01/23 09:42:57;;;;;;;23.05;9.75;;;;;;;1.66;83.27;97873.48;1754665;81;21151;-85
2021/01/23 09:45:24;;;;;;;20.68;9.60;;;;;;;1.70;83.22;97867.30;1722749;83;21148;-86
2021/01/23 09:47:51;;;;;;;21.42;9.83;;;;;;;1.74;83.10;97858.58;1756735;81;22167;-82
2021/01/23 09:50:21;;;;;;;17.25;8.88;;;;;;;1.75;82.94;97847.38;1744925;80;21175;-86
2021/01/23 09:52:48;;;;;;;17.90;8.80;;;;;;;1.75;82.89;97844.80;1786185;79;21219;-81
2021/01/23 09:55:18;;;;;;;21.48;10.20;;;;;;;1.77;82.84;97843.84;1779405;79;21156;-83
2021/01/23 09:57:45;;;;;;;23.73;11.50;;;;;;;1.78;82.86;97840.80;1752328;81;21163;-85
2021/01/23 10:00:15;;;;;;;23.77;12.98;;;;;;;1.81;83.09;97843.25;1770558;80;21259;-83
2021/01/23 10:02:43;;;;;;;24.30;12.50;;;;;;;1.83;82.94;97839.34;1774124;78;21571;-80
2021/01/23 10:05:12;;;;;;;27.25;12.33;;;;;;;1.83;83.00;97833.73;1776608;79;21184;-79
2021/01/23 10:07:39;;;;;;;21.25;11.93;;;;;;;1.83;82.96;97827.30;1739869;81;21170;-77
2021/01/23 10:10:09;;;;;;;23.15;11.33;;;;;;;1.84;82.91;97814.81;1760321;80;21185;-78
2021/01/23 10:12:36;;;;;;;24.52;10.98;;;;;;;1.85;82.90;97812.64;1774868;80;21211;-77
2021/01/23 10:15:05;;;;;;;20.97;10.43;;;;;;;1.86;82.99;97805.30;1767281;81;21221;-83
2021/01/23 10:17:32;;;;;;;20.48;9.00;;;;;;;1.90;82.98;97793.95;1772688;79;21128;-76
2021/01/23 10:19:59;;;;;;;15.00;8.38;;;;;;;1.94;82.92;97790.36;1790335;79;23694;-82
2021/01/23 10:22:26;;;;;;;18.30;8.48;;;;;;;1.94;82.83;97783.92;1777885;79;21208;-82
2021/01/23 10:24:53;;;;;;;15.30;7.20;;;;;;;1.94;82.88;97778.78;1787051;79;21485;-80
2021/01/23 10:27:24;;;;;;;12.15;6.92;;;;;;;1.94;82.83;97767.20;1794413;79;21180;-81
2021/01/23 10:29:49;;;;;;;19.05;7.30;;;;;;;1.94;82.86;97758.19;1757646;80;21198;-80
2021/01/23 10:32:16;;;;;;;15.40;7.75;;;;;;;1.95;82.77;97762.42;1773014;80;21168;-81
2021/01/23 10:34:43;;;;;;;15.98;8.40;;;;;;;1.95;82.76;97762.42;1759613;80;21574;-80
2021/01/23 10:37:11;;;;;;;20.60;8.85;;;;;;;1.94;82.71;97768.48;1776047;80;21147;-80
2021/01/23 10:39:38;;;;;;;20.50;9.08;;;;;;;1.92;82.67;97767.70;1783634;79;21559;-85
2021/01/23 10:42:05;;;;;;;15.68;7.35;;;;;;;1.90;82.66;97761.78;1753372;80;21148;-80
2021/01/23 10:44:38;;;;;;;12.53;6.62;;;;;;;1.90;82.63;97768.22;1755791;80;28592;-82
2021/01/23 10:47:01;;;;;;;19.98;6.83;;;;;;;1.89;82.56;97760.13;1754997;81;21243;-80
2021/01/23 10:49:30;;;;;;;15.18;6.37;;;;;;;1.88;82.53;97754.60;1738771;80;22085;-81
2021/01/23 10:51:57;;;;;;;11.15;5.97;;;;;;;1.87;82.50;97752.91;1754277;80;21154;-82
2021/01/23 10:54:24;;;;;;;11.83;4.97;;;;;;;1.87;82.39;97752.91;1742188;81;21166;-82
2021/01/23 10:56:51;;;;;;;14.25;7.30;;;;;;;1.87;82.43;97750.34;1728152;80;21602;-81
2021/01/23 10:59:19;;;;;;;9.85;5.45;;;;;;;1.88;82.36;97758.92;1767558;80;21181;-81
2021/01/23 11:01:47;;;;;;;9.83;4.87;;;;;;;1.88;82.31;97745.59;1788667;80;21199;-85
2021/01/23 11:04:15;;;;;;;8.15;4.62;;;;;;;1.87;82.26;97746.48;1776481;80;21725;-79
2021/01/23 11:06:43;;;;;;;8.15;4.75;;;;;;;1.84;82.17;97746.61;1788316;80;21191;-81
2021/01/23 11:09:10;;;;;;;14.78;6.12;;;;;;;1.84;82.17;97741.47;1781385;80;21161;-82
2021/01/23 11:11:38;;;;;;;13.50;7.17;;;;;;;1.83;82.18;97724.37;1782949;80;21202;-82
2021/01/23 11:14:05;;;;;;;8.70;4.95;;;;;;;1.85;82.14;97726.44;1781090;80;21254;-81
2021/01/23 11:16:32;;;;;;;12.63;6.25;;;;;;;1.87;82.18;97709.16;1748190;81;21658;-82
2021/01/23 11:18:59;;;;;;;18.32;7.20;;;;;;;1.87;82.03;97700.61;1759392;80;21151;-81
2021/01/23 11:21:28;;;;;;;15.93;8.48;;;;;;;1.86;82.05;97695.09;1768768;80;21206;-81
2021/01/23 11:23:57;;;;;;;13.78;6.80;;;;;;;1.84;81.98;97693.86;1773952;80;21628;-81
2021/01/23 11:26:24;;;;;;;10.55;5.78;;;;;;;1.82;81.98;97677.68;1772278;80;21200;-80
2021/01/23 11:28:51;;;;;;;11.20;6.70;;;;;;;1.82;81.98;97675.11;1775065;80;21182;-80
2021/01/23 11:31:19;;;;;;;13.90;7.05;;;;;;;1.80;82.02;97660.17;1745936;80;21171;-83
2021/01/23 11:33:46;;;;;;;12.65;6.25;;;;;;;1.79;82.00;97650.77;1775527;80;21052;-79
2021/01/23 11:36:13;;;;;;;11.43;6.83;;;;;;;1.77;82.01;97651.31;1758090;81;21098;-81
2021/01/23 11:38:51;;;;;;;13.88;6.55;;;;;;;1.74;81.99;97638.13;1768566;80;22393;-80
2021/01/23 11:41:18;;;;;;;11.70;6.85;;;;;;;1.68;82.04;97626.84;1763824;80;21232;-80
2021/01/23 11:43:45;;;;;;;12.90;6.85;;;;;;;1.66;82.08;97623.95;1766676;80;21104;-81
2021/01/23 11:46:12;;;;;;;14.80;6.83;;;;;;;1.60;82.10;97615.19;1777527;80;21188;-82